Aviation Digital Data Service (ADDS)

Output produced by METARs form (1227 UTC 19 January 2019)
found at http://www.aviationweather.gov/metar/data/
 
Forecast for: LELC (SAN JAVIER(MIL/C, ES)
Text: TAF LELC 191100Z 1912/2012 33011KT 9999 FEW040 TX16/1915Z TN09/2007Z
Forecast period: 1200 to 1300 UTC 19 January 2019
Forecast type: FROM: standard forecast or significant change
Winds: from the NNW (330 degrees) at 13 MPH (11 knots; 5.7 m/s)
Visibility: 6 or more miles 10+ km)
Ceiling: at least 12,000 feet AGL
Clouds: few clouds at 4000 feet AGL
Weather: no significant weather forecast for this period
Text: BECMG 1913/1916 25007KT
Forecast period: 1300 UTC 19 January 2019 to 1200 UTC 20 January 2019
Forecast type: BECOMING: Conditions expected to become as follows by 1600 UTC 19 January 2019
Winds: from the WSW (250 degrees) at 8 MPH (7 knots; 3.6 m/s)
Visibility: 6 or more miles 10+ km)
Ceiling: at least 12,000 feet AGL
Clouds: few clouds at 4000 feet AGL
Weather: no significant weather forecast for this period
Text: PROB40
Forecast period: 0000 to 1200 UTC 20 January 2019
Forecast type: TEMPORARY: The following changes expected for less than half the time period
Visibility: 2.49 miles (4.01 km)
Ceiling: unknown
Clouds: missing
Weather: -RA  (light rain)